createdAt,value
2018-05-25T00:01:34.103Z,4.37
2018-05-25T00:04:00.142Z,4.60
2018-05-25T00:06:26.097Z,4.73
2018-05-25T00:08:52.180Z,4.87
2018-05-25T00:11:18.125Z,4.70
2018-05-25T00:13:44.264Z,4.50
2018-05-25T00:16:10.159Z,5.13
2018-05-25T00:18:36.116Z,4.90
2018-05-25T00:21:02.099Z,4.97
2018-05-25T00:23:28.029Z,4.60
2018-05-25T00:25:54.027Z,4.90
2018-05-25T00:28:19.988Z,4.73
2018-05-25T00:30:45.896Z,4.87
2018-05-25T00:33:11.900Z,4.60
2018-05-25T00:35:37.809Z,5.13
2018-05-25T00:38:07.633Z,5.07
2018-05-25T00:40:36.272Z,5.40
2018-05-25T00:43:02.217Z,4.60
2018-05-25T00:45:28.142Z,4.90
2018-05-25T00:47:54.173Z,5.17
2018-05-25T00:50:20.173Z,4.87
2018-05-25T00:52:46.088Z,5.20
2018-05-25T00:55:24.488Z,4.90
2018-05-25T00:57:50.468Z,4.70
2018-05-25T01:00:16.391Z,4.80
2018-05-25T01:02:42.367Z,5.10
2018-05-25T01:05:08.296Z,5.00
2018-05-25T01:07:34.547Z,4.73
2018-05-25T01:10:00.673Z,5.80
2018-05-25T01:12:26.610Z,5.30
2018-05-25T01:14:52.576Z,5.20
2018-05-25T01:17:18.559Z,5.07
2018-05-25T01:19:44.575Z,5.07
2018-05-25T01:22:11.579Z,5.00
2018-05-25T01:24:38.143Z,5.70
2018-05-25T01:27:04.182Z,5.07
2018-05-25T01:29:30.198Z,4.67
2018-05-25T01:31:56.224Z,5.20
2018-05-25T01:34:22.219Z,5.60
2018-05-25T01:36:48.179Z,5.53
2018-05-25T01:39:14.145Z,5.00
2018-05-25T01:41:40.947Z,4.97
2018-05-25T01:44:06.871Z,5.50
2018-05-25T01:46:33.167Z,5.93
2018-05-25T01:48:59.069Z,5.50
2018-05-25T01:51:25.019Z,5.67
2018-05-25T01:53:51.191Z,5.50
2018-05-25T01:56:17.096Z,5.60
2018-05-25T01:58:43.007Z,5.30
2018-05-25T02:01:10.043Z,5.17
2018-05-25T02:03:36.128Z,5.43
2018-05-25T02:06:02.142Z,5.47
2018-05-25T02:08:28.092Z,5.60
2018-05-25T02:10:54.019Z,5.13
2018-05-25T02:13:19.991Z,5.43
2018-05-25T02:15:45.948Z,5.13
2018-05-25T02:18:11.938Z,5.97
2018-05-25T02:20:37.871Z,5.63
2018-05-25T02:23:03.821Z,5.30
2018-05-25T02:25:30.134Z,5.43
2018-05-25T02:27:56.179Z,5.00
2018-05-25T02:30:22.251Z,5.40
2018-05-25T02:32:48.159Z,5.40
2018-05-25T02:35:14.096Z,5.40
2018-05-25T02:37:52.269Z,5.50
2018-05-25T02:40:18.172Z,5.13
2018-05-25T02:42:44.238Z,5.10
2018-05-25T02:45:10.538Z,5.67
2018-05-25T02:47:36.495Z,5.33
2018-05-25T02:50:02.411Z,5.47
2018-05-25T02:52:28.399Z,5.57
2018-05-25T02:54:54.461Z,5.13
2018-05-25T02:57:20.491Z,5.53
2018-05-25T02:59:46.467Z,5.70
2018-05-25T03:02:12.404Z,5.33
2018-05-25T03:04:38.306Z,5.00
2018-05-25T03:07:04.446Z,5.13
2018-05-25T03:09:30.415Z,5.40
2018-05-25T03:11:56.399Z,5.60
2018-05-25T03:14:22.419Z,5.10
2018-05-25T03:16:48.340Z,5.17
2018-05-25T03:19:14.311Z,5.53
2018-05-25T03:21:40.365Z,5.17
2018-05-25T03:24:06.361Z,5.43
2018-05-25T03:26:32.271Z,5.10
2018-05-25T03:28:58.315Z,5.60
2018-05-25T03:31:24.422Z,5.80
2018-05-25T03:33:50.496Z,5.00
2018-05-25T03:36:21.552Z,5.67
2018-05-25T03:38:47.495Z,5.30
2018-05-25T03:41:13.438Z,5.03
2018-05-25T03:43:39.579Z,5.40
2018-05-25T03:46:05.481Z,5.77
2018-05-25T03:48:31.448Z,5.57
2018-05-25T03:50:57.771Z,5.40
2018-05-25T03:53:23.797Z,5.50
2018-05-25T03:55:49.825Z,5.23
2018-05-25T03:58:15.808Z,5.87
2018-05-25T04:00:54.064Z,5.73
2018-05-25T04:03:20.059Z,5.60
2018-05-25T04:05:46.031Z,4.97
2018-05-25T04:08:12.040Z,5.63
2018-05-25T04:10:38.031Z,5.53
2018-05-25T04:13:03.942Z,5.37
2018-05-25T04:15:30.976Z,5.00
2018-05-25T04:17:57.188Z,5.10
2018-05-25T04:20:23.242Z,5.13
2018-05-25T04:22:49.176Z,5.17
2018-05-25T04:25:21.366Z,5.80
2018-05-25T04:27:47.312Z,5.17
2018-05-25T04:30:13.290Z,5.73
2018-05-25T04:32:40.285Z,4.80
2018-05-25T04:35:06.184Z,5.30
2018-05-25T04:37:32.100Z,4.93
2018-05-25T04:39:58.094Z,4.70
2018-05-25T04:42:24.107Z,4.40
2018-05-25T04:44:50.263Z,4.77
2018-05-25T04:47:16.216Z,5.00
2018-05-25T04:49:42.347Z,5.27
2018-05-25T04:52:08.309Z,5.27
2018-05-25T04:54:34.383Z,5.17
2018-05-25T04:57:00.377Z,5.03
2018-05-25T04:59:26.399Z,4.87
2018-05-25T05:01:52.512Z,4.60
2018-05-25T05:04:18.476Z,5.10
2018-05-25T05:06:44.616Z,5.23
2018-05-25T05:09:10.699Z,4.60
2018-05-25T05:11:36.666Z,5.07
2018-05-25T05:14:02.621Z,4.97
2018-05-25T05:16:28.630Z,4.80
2018-05-25T05:18:54.613Z,4.87
2018-05-25T05:21:20.704Z,5.13
2018-05-25T05:23:46.962Z,5.07
2018-05-25T05:26:12.879Z,4.50
2018-05-25T05:28:38.804Z,4.60
2018-05-25T05:31:07.943Z,5.00
2018-05-25T05:33:39.607Z,4.90
2018-05-25T05:36:08.335Z,4.70
2018-05-25T05:38:43.409Z,4.57
2018-05-25T05:41:09.948Z,4.67
2018-05-25T05:43:35.940Z,4.60
2018-05-25T05:46:02.032Z,5.07
2018-05-25T05:48:28.157Z,4.60
2018-05-25T05:50:54.174Z,4.80
2018-05-25T05:53:20.201Z,4.50
2018-05-25T05:55:49.388Z,4.80
2018-05-25T05:58:15.336Z,4.70
2018-05-25T06:00:41.340Z,4.90
2018-05-25T06:03:07.533Z,4.23
2018-05-25T06:05:33.459Z,5.10
2018-05-25T06:07:59.549Z,4.90
2018-05-25T06:10:25.530Z,4.80
2018-05-25T06:12:51.532Z,4.70
2018-05-25T06:15:17.466Z,4.67
2018-05-25T06:17:43.439Z,4.83
2018-05-25T06:20:09.432Z,4.90
2018-05-25T06:22:36.652Z,4.67
2018-05-25T06:25:02.965Z,5.60
2018-05-25T06:27:28.935Z,4.40
2018-05-25T06:29:54.893Z,4.87
2018-05-25T06:32:21.008Z,4.60
2018-05-25T06:34:46.986Z,4.43
2018-05-25T06:37:12.865Z,5.03
2018-05-25T06:39:39.004Z,4.70
2018-05-25T06:42:05.116Z,4.13
2018-05-25T06:44:31.129Z,4.50
2018-05-25T06:46:57.153Z,4.27
2018-05-25T06:49:23.217Z,4.30
2018-05-25T06:51:49.135Z,4.47
2018-05-25T06:54:15.101Z,5.57
2018-05-25T06:56:41.099Z,4.10
2018-05-25T06:59:06.992Z,4.43
2018-05-25T07:01:36.370Z,4.50
2018-05-25T07:04:10.361Z,4.37
2018-05-25T07:06:40.339Z,4.03
2018-05-25T07:09:10.035Z,4.87
2018-05-25T07:11:35.948Z,4.80
2018-05-25T07:14:10.180Z,4.43
2018-05-25T07:16:40.167Z,4.53
2018-05-25T07:19:06.792Z,4.33
2018-05-25T07:21:32.756Z,4.70
2018-05-25T07:23:58.767Z,4.10
2018-05-25T07:26:24.799Z,4.30
2018-05-25T07:28:50.903Z,4.17
2018-05-25T07:31:16.947Z,5.03
2018-05-25T07:33:43.568Z,4.37
2018-05-25T07:36:09.635Z,4.13
2018-05-25T07:38:35.840Z,4.50
2018-05-25T07:41:02.069Z,4.60
2018-05-25T07:43:28.156Z,4.37
2018-05-25T07:45:54.142Z,4.70
2018-05-25T07:48:20.373Z,4.43
2018-05-25T07:50:46.649Z,4.53
2018-05-25T07:53:14.078Z,4.10
2018-05-25T07:55:41.281Z,4.70
2018-05-25T07:58:07.392Z,4.50
2018-05-25T08:00:33.326Z,4.40
2018-05-25T08:02:59.414Z,4.33
2018-05-25T08:05:25.555Z,4.43
2018-05-25T08:07:51.699Z,4.30
2018-05-25T08:10:17.936Z,4.77
2018-05-25T08:12:44.726Z,4.33
2018-05-25T08:15:10.711Z,4.63
2018-05-25T08:17:41.077Z,4.43
2018-05-25T08:20:09.394Z,4.00
2018-05-25T08:22:38.636Z,4.33
2018-05-25T08:25:04.633Z,4.43
2018-05-25T08:27:30.763Z,4.00
2018-05-25T08:29:56.987Z,3.93
2018-05-25T08:32:23.145Z,4.00
2018-05-25T08:34:49.738Z,3.83
2018-05-25T08:37:18.612Z,3.73
2018-05-25T08:39:44.836Z,4.00
2018-05-25T08:42:10.919Z,3.57
2018-05-25T08:44:37.258Z,4.03
2018-05-25T08:47:06.127Z,3.67
2018-05-25T08:49:33.207Z,4.17
2018-05-25T08:52:00.098Z,3.90
2018-05-25T08:54:26.117Z,4.20
2018-05-25T08:56:52.303Z,4.03
2018-05-25T08:59:18.465Z,3.70
2018-05-25T09:01:44.563Z,3.77
2018-05-25T09:04:10.679Z,3.93
2018-05-25T09:06:36.668Z,4.00
2018-05-25T09:09:02.775Z,4.13
2018-05-25T09:11:28.792Z,4.03
2018-05-25T09:13:54.810Z,3.93
2018-05-25T09:16:20.906Z,3.60
2018-05-25T09:18:48.230Z,3.87
2018-05-25T09:21:14.233Z,3.97
2018-05-25T09:23:40.167Z,3.80
2018-05-25T09:26:09.640Z,3.23
2018-05-25T09:28:36.513Z,3.20
2018-05-25T09:31:02.578Z,3.90
2018-05-25T09:33:28.787Z,3.53
2018-05-25T09:35:54.885Z,3.50
2018-05-25T09:38:20.922Z,3.27
2018-05-25T09:40:46.943Z,3.40
2018-05-25T09:43:13.024Z,3.13
2018-05-25T09:45:38.775Z,3.20
2018-05-25T09:48:08.888Z,3.50
2018-05-25T09:50:34.807Z,3.40
2018-05-25T09:53:00.718Z,3.87
2018-05-25T09:55:26.791Z,3.20
2018-05-25T09:57:56.742Z,3.30
2018-05-25T10:00:24.666Z,3.63
2018-05-25T10:02:50.792Z,3.63
2018-05-25T10:05:16.735Z,3.77
2018-05-25T10:07:42.636Z,3.27
2018-05-25T10:10:08.604Z,3.30
2018-05-25T10:12:41.750Z,3.33
2018-05-25T10:15:07.692Z,3.30
2018-05-25T10:17:34.415Z,2.97
2018-05-25T10:20:00.364Z,3.00
2018-05-25T10:22:26.592Z,2.70
2018-05-25T10:24:52.885Z,2.93
2018-05-25T10:27:18.810Z,3.30
2018-05-25T10:29:45.511Z,3.10
2018-05-25T10:32:12.361Z,3.00
2018-05-25T10:34:38.991Z,3.17
2018-05-25T10:37:05.627Z,2.70
2018-05-25T10:39:31.764Z,3.30
2018-05-25T10:41:57.850Z,3.10
2018-05-25T10:44:23.885Z,3.23
2018-05-25T10:46:49.948Z,3.27
2018-05-25T10:49:15.876Z,3.00
2018-05-25T10:51:41.748Z,3.07
2018-05-25T10:54:08.769Z,3.07
2018-05-25T10:56:34.674Z,3.13
2018-05-25T10:59:00.685Z,3.20
2018-05-25T11:01:26.715Z,3.27
2018-05-25T11:03:52.786Z,3.10
2018-05-25T11:06:18.691Z,2.60
2018-05-25T11:08:44.705Z,2.77
2018-05-25T11:11:10.590Z,2.90
2018-05-25T11:13:36.582Z,3.17
2018-05-25T11:16:02.507Z,3.00
2018-05-25T11:18:28.447Z,2.80
2018-05-25T11:20:54.396Z,3.30
2018-05-25T11:23:20.593Z,2.77
2018-05-25T11:25:46.494Z,3.43
2018-05-25T11:28:12.379Z,3.30
2018-05-25T11:30:38.290Z,3.17
2018-05-25T11:33:04.267Z,3.10
2018-05-25T11:35:30.155Z,3.17
2018-05-25T11:37:56.263Z,3.50
2018-05-25T11:40:22.328Z,3.40
2018-05-25T11:42:48.244Z,3.20
2018-05-25T11:45:14.172Z,3.22
2018-05-25T11:47:41.091Z,3.40
2018-05-25T11:50:06.972Z,2.90
2018-05-25T11:52:32.913Z,3.00
2018-05-25T11:54:58.907Z,3.30
2018-05-25T11:57:24.913Z,3.30
2018-05-25T11:59:51.162Z,3.20
2018-05-25T12:02:17.072Z,3.27
2018-05-25T12:04:43.160Z,3.00
2018-05-25T12:07:09.139Z,3.60
2018-05-25T12:09:35.106Z,3.35
2018-05-25T12:12:03.184Z,3.58
2018-05-25T12:14:29.256Z,3.30
2018-05-25T12:16:55.232Z,3.60
2018-05-25T12:19:22.291Z,3.90
2018-05-25T12:21:48.275Z,3.50
2018-05-25T12:24:14.139Z,3.33
2018-05-25T12:26:40.043Z,3.50
2018-05-25T12:29:06.004Z,3.50
2018-05-25T12:31:41.757Z,3.27
2018-05-25T12:34:07.801Z,4.07
2018-05-25T12:36:34.081Z,3.07
2018-05-25T12:39:00.070Z,3.20
2018-05-25T12:41:26.173Z,3.80
2018-05-25T12:43:52.234Z,3.30
2018-05-25T12:46:18.156Z,3.70
2018-05-25T12:48:44.367Z,3.30
2018-05-25T12:51:12.353Z,3.40
2018-05-25T12:53:38.583Z,3.23
2018-05-25T12:56:04.507Z,3.07
2018-05-25T12:58:30.444Z,3.00
2018-05-25T13:00:56.404Z,3.00
2018-05-25T13:03:22.697Z,3.50
2018-05-25T13:05:50.154Z,3.23
2018-05-25T13:08:16.096Z,3.50
2018-05-25T13:10:42.078Z,3.37
2018-05-25T13:13:09.935Z,3.70
2018-05-25T13:15:40.712Z,3.77
2018-05-25T13:18:06.937Z,3.17
2018-05-25T13:20:32.928Z,3.60
2018-05-25T13:22:58.966Z,2.90
2018-05-25T13:25:25.007Z,3.10
2018-05-25T13:27:51.093Z,3.07
2018-05-25T13:30:17.217Z,3.17
2018-05-25T13:32:45.532Z,3.03
2018-05-25T13:35:11.496Z,2.83
2018-05-25T13:37:41.421Z,3.27
2018-05-25T13:40:11.175Z,3.13
2018-05-25T13:42:37.098Z,3.17
2018-05-25T13:45:03.031Z,3.47
2018-05-25T13:47:29.062Z,2.90
2018-05-25T13:49:55.128Z,3.10
2018-05-25T13:52:21.629Z,3.17
2018-05-25T13:54:47.645Z,3.27
2018-05-25T13:57:15.834Z,2.97
2018-05-25T13:59:41.724Z,3.03
2018-05-25T14:02:07.667Z,2.97
2018-05-25T14:04:33.537Z,2.90
2018-05-25T14:06:59.535Z,3.77
2018-05-25T14:09:25.513Z,3.20
2018-05-25T14:11:51.766Z,3.00
2018-05-25T14:14:18.229Z,3.17
2018-05-25T14:16:44.899Z,3.33
2018-05-25T14:19:10.887Z,3.47
2018-05-25T14:21:37.109Z,3.10
2018-05-25T14:24:06.283Z,3.43
2018-05-25T14:26:32.568Z,3.07
2018-05-25T14:28:58.578Z,3.20
2018-05-25T14:31:24.664Z,3.20
2018-05-25T14:33:52.150Z,3.33
2018-05-25T14:36:18.294Z,3.20
2018-05-25T14:38:44.887Z,3.10
2018-05-25T14:41:11.019Z,3.20
2018-05-25T14:43:38.014Z,3.17
2018-05-25T14:46:04.039Z,3.50
2018-05-25T14:48:30.269Z,2.90
2018-05-25T14:50:56.353Z,2.83
2018-05-25T14:53:23.163Z,3.10
2018-05-25T14:55:49.446Z,3.10
2018-05-25T14:58:15.456Z,2.93
2018-05-25T15:00:41.404Z,3.20
2018-05-25T15:03:07.320Z,2.80
2018-05-25T15:05:33.339Z,3.00
2018-05-25T15:07:59.491Z,3.03
2018-05-25T15:10:25.521Z,3.13
2018-05-25T15:12:51.801Z,2.90
2018-05-25T15:15:17.775Z,2.67
2018-05-25T15:17:43.795Z,2.92
2018-05-25T15:20:09.914Z,2.67
2018-05-25T15:22:35.918Z,3.10
2018-05-25T15:25:02.299Z,2.90
2018-05-25T15:27:28.346Z,2.95
2018-05-25T15:29:54.536Z,2.80
2018-05-25T15:32:20.583Z,3.00
2018-05-25T15:34:46.810Z,2.58
2018-05-25T15:37:13.940Z,2.40
2018-05-25T15:39:41.000Z,3.08
2018-05-25T15:42:06.905Z,2.90
2018-05-25T15:44:32.847Z,2.97
2018-05-25T15:46:59.110Z,3.17
2018-05-25T15:49:26.274Z,2.95
2018-05-25T15:51:52.586Z,2.90
2018-05-25T15:54:18.517Z,2.97
2018-05-25T15:56:44.630Z,3.22
2018-05-25T15:59:13.404Z,2.90
2018-05-25T16:01:39.440Z,3.47
2018-05-25T16:04:05.332Z,3.00
2018-05-25T16:06:31.348Z,3.07
2018-05-25T16:08:58.449Z,2.70
2018-05-25T16:11:24.553Z,3.00
2018-05-25T16:13:50.479Z,3.10
2018-05-25T16:16:16.921Z,3.10
2018-05-25T16:18:46.456Z,3.00
2018-05-25T16:21:12.799Z,3.20
2018-05-25T16:23:38.913Z,3.27
2018-05-25T16:26:05.256Z,3.07
2018-05-25T16:28:31.372Z,3.13
2018-05-25T16:30:57.256Z,3.13
2018-05-25T16:33:23.192Z,3.03
2018-05-25T16:35:49.117Z,3.27
2018-05-25T16:38:15.029Z,3.00
2018-05-25T16:40:40.992Z,3.77
2018-05-25T16:43:07.227Z,3.27
2018-05-25T16:45:33.244Z,3.30
2018-05-25T16:47:59.128Z,3.13
2018-05-25T16:50:25.052Z,3.20
2018-05-25T16:52:50.979Z,3.07
2018-05-25T16:55:16.822Z,3.43
2018-05-25T16:57:42.951Z,3.30
2018-05-25T17:00:10.263Z,3.50
2018-05-25T17:02:37.865Z,3.10
2018-05-25T17:05:04.642Z,3.63
2018-05-25T17:07:31.977Z,3.20
2018-05-25T17:09:57.933Z,3.40
2018-05-25T17:12:23.900Z,3.37
2018-05-25T17:14:49.756Z,3.10
2018-05-25T17:17:15.659Z,3.50
2018-05-25T17:19:42.182Z,3.37
2018-05-25T17:22:08.561Z,3.27
2018-05-25T17:24:34.968Z,3.80
2018-05-25T17:27:01.024Z,3.57
2018-05-25T17:29:28.959Z,3.10
2018-05-25T17:31:57.713Z,3.47
2018-05-25T17:34:23.788Z,3.63
2018-05-25T17:36:49.687Z,3.57
2018-05-25T17:39:15.577Z,3.33
2018-05-25T17:41:41.772Z,3.60
2018-05-25T17:44:08.034Z,3.43
2018-05-25T17:46:34.244Z,3.60
2018-05-25T17:49:00.520Z,3.20
2018-05-25T17:51:26.404Z,3.33
2018-05-25T17:53:52.293Z,3.43
2018-05-25T17:56:22.679Z,3.93
2018-05-25T17:58:48.569Z,3.50
2018-05-25T18:01:14.511Z,3.70
2018-05-25T18:03:40.642Z,3.60
2018-05-25T18:06:06.718Z,3.33
2018-05-25T18:08:32.760Z,2.93
2018-05-25T18:10:58.682Z,3.30
2018-05-25T18:13:24.573Z,3.03
2018-05-25T18:15:50.457Z,3.03
2018-05-25T18:18:16.402Z,3.10
2018-05-25T18:20:42.406Z,3.00
2018-05-25T18:23:08.455Z,3.33
2018-05-25T18:25:34.557Z,3.33
2018-05-25T18:28:00.436Z,3.30
2018-05-25T18:30:26.340Z,2.97
2018-05-25T18:32:52.298Z,3.50
2018-05-25T18:35:18.232Z,3.23
2018-05-25T18:37:46.156Z,3.10
2018-05-25T18:40:12.180Z,3.10
2018-05-25T18:42:38.319Z,2.67
2018-05-25T18:45:04.544Z,3.47
2018-05-25T18:47:30.511Z,3.40
2018-05-25T18:49:56.399Z,2.60
2018-05-25T18:52:22.303Z,3.10
2018-05-25T18:54:48.222Z,2.70
2018-05-25T18:57:14.196Z,3.13
2018-05-25T18:59:40.129Z,3.00
2018-05-25T19:02:06.390Z,3.37
2018-05-25T19:04:32.672Z,3.67
2018-05-25T19:06:58.584Z,3.07
2018-05-25T19:09:24.622Z,3.00
2018-05-25T19:11:50.527Z,3.60
2018-05-25T19:14:16.431Z,3.10
2018-05-25T19:16:42.474Z,3.07
2018-05-25T19:19:08.612Z,2.70
2018-05-25T19:21:34.699Z,2.93
2018-05-25T19:24:00.664Z,3.10
2018-05-25T19:26:26.564Z,3.50
2018-05-25T19:28:53.499Z,2.93
2018-05-25T19:31:19.612Z,3.03
2018-05-25T19:33:46.229Z,3.10
2018-05-25T19:36:12.501Z,2.80
2018-05-25T19:38:38.507Z,2.60
2018-05-25T19:41:04.352Z,3.10
2018-05-25T19:43:30.228Z,2.80
2018-05-25T19:45:56.326Z,3.13
2018-05-25T19:48:22.224Z,3.03
2018-05-25T19:50:48.270Z,3.20
2018-05-25T19:53:14.459Z,2.80
2018-05-25T19:55:40.345Z,3.20
2018-05-25T19:58:06.310Z,2.57
2018-05-25T20:00:32.256Z,2.77
2018-05-25T20:02:58.132Z,2.90
2018-05-25T20:05:27.207Z,2.87
2018-05-25T20:07:53.579Z,3.00
2018-05-25T20:10:19.667Z,3.20
2018-05-25T20:12:45.723Z,2.93
2018-05-25T20:15:11.852Z,2.80
2018-05-25T20:17:37.742Z,3.30
2018-05-25T20:20:03.629Z,2.80
2018-05-25T20:22:30.623Z,2.97
2018-05-25T20:24:56.509Z,3.00
2018-05-25T20:27:22.868Z,2.70
2018-05-25T20:29:48.829Z,2.90
2018-05-25T20:32:14.972Z,2.80
2018-05-25T20:34:40.967Z,3.27
2018-05-25T20:37:06.904Z,2.93
2018-05-25T20:39:32.782Z,2.90
2018-05-25T20:41:58.891Z,3.00
2018-05-25T20:44:25.130Z,2.90
2018-05-25T20:46:51.950Z,2.77
2018-05-25T20:49:17.905Z,3.00
2018-05-25T20:51:43.972Z,3.20
2018-05-25T20:54:10.069Z,3.00
2018-05-25T20:56:35.955Z,3.20
2018-05-25T20:59:02.090Z,3.33
2018-05-25T21:01:28.079Z,2.93
2018-05-25T21:03:53.951Z,2.93
2018-05-25T21:06:19.967Z,3.10
2018-05-25T21:08:46.113Z,3.17
2018-05-25T21:11:12.512Z,3.63
2018-05-25T21:13:38.587Z,3.50
2018-05-25T21:16:04.846Z,3.80
2018-05-25T21:18:30.763Z,3.87
2018-05-25T21:20:56.710Z,3.00
2018-05-25T21:23:22.708Z,3.50
2018-05-25T21:25:48.718Z,3.40
2018-05-25T21:28:15.006Z,3.70
2018-05-25T21:30:41.047Z,3.90
2018-05-25T21:33:06.956Z,3.70
2018-05-25T21:35:32.910Z,3.60
2018-05-25T21:37:58.811Z,3.93
2018-05-25T21:40:24.690Z,3.53
2018-05-25T21:42:50.741Z,3.83
2018-05-25T21:45:17.167Z,3.53
2018-05-25T21:47:43.155Z,3.67
2018-05-25T21:50:09.123Z,3.60
2018-05-25T21:52:35.282Z,3.47
2018-05-25T21:55:01.531Z,3.80
2018-05-25T21:57:27.455Z,3.60
2018-05-25T21:59:53.447Z,3.77
2018-05-25T22:02:19.324Z,3.90
2018-05-25T22:04:45.547Z,3.40
2018-05-25T22:07:11.481Z,4.07
2018-05-25T22:09:37.524Z,3.60
2018-05-25T22:12:03.471Z,3.70
2018-05-25T22:14:29.358Z,3.70
2018-05-25T22:16:55.278Z,3.60
2018-05-25T22:19:21.245Z,3.83
2018-05-25T22:21:47.165Z,4.20
2018-05-25T22:24:13.086Z,3.70
2018-05-25T22:26:39.138Z,3.93
2018-05-25T22:29:05.112Z,3.97
2018-05-25T22:31:31.063Z,3.90
2018-05-25T22:33:57.054Z,3.90
2018-05-25T22:36:22.935Z,3.93
2018-05-25T22:38:48.960Z,3.93
2018-05-25T22:41:14.896Z,4.17
2018-05-25T22:43:53.058Z,3.87
2018-05-25T22:46:31.336Z,4.13
2018-05-25T22:49:09.785Z,4.20
2018-05-25T22:51:48.107Z,4.20
2018-05-25T22:54:40.851Z,4.20
2018-05-25T22:57:06.852Z,3.73
2018-05-25T22:59:32.823Z,4.03
2018-05-25T23:01:58.692Z,4.50
2018-05-25T23:04:24.654Z,4.30
2018-05-25T23:06:50.571Z,4.17
2018-05-25T23:09:16.792Z,4.07
2018-05-25T23:11:42.825Z,4.53
2018-05-25T23:14:08.707Z,4.10
2018-05-25T23:16:34.594Z,4.53
2018-05-25T23:19:00.556Z,4.20
2018-05-25T23:21:26.492Z,4.57
2018-05-25T23:23:52.448Z,4.27
2018-05-25T23:26:18.443Z,4.40
2018-05-25T23:28:44.308Z,4.60
2018-05-25T23:31:10.192Z,4.37
2018-05-25T23:33:36.186Z,4.80
2018-05-25T23:36:02.149Z,5.03
2018-05-25T23:38:28.031Z,4.43
2018-05-25T23:40:54.006Z,4.60
2018-05-25T23:43:19.895Z,5.03
2018-05-25T23:45:45.850Z,4.70
2018-05-25T23:48:11.904Z,5.00
2018-05-25T23:50:37.827Z,4.37
2018-05-25T23:53:03.704Z,4.70
2018-05-25T23:55:29.620Z,5.50
2018-05-25T23:57:55.582Z,4.90
